^^
Station Historical Data
Daily Summary for May 25, 2017 Units:  English    Metric   Both
« Previous Day
Next Day »
Daily Weekly Monthly Yearly Custom
  High: Low: Average:
Temperature: 61.7 °F 54.5 °F 57.8 °F
Dew Point: 58.7 °F 50.4 °F 55.1 °F
Humidity: 95 % 74 % 91 %
Wind Speed: 3.1 mph 0.0 mph 0.3 mph
Wind Gust: 13.8 mph - -
Wind:- - ENE
Pressure: 29.77 in 29.48 in -
Precipitation: 0.65 in    
Historical Graphs
 
 
Tabular Data for May 25, 2017
Time Temperature Dew Point Pressure Wind Wind Speed Wind Gust Humidity Rainfall Rate (Hourly) solar Conditions
00:03 58.7 °F 50.4 °F 29.77 in SE 0.5 mph 3.5 mph 74 % 0.00 in 0.0 W/m2 RA
00:08 58.4 °F 50.5 °F 29.77 in ESE 0.8 mph 3.5 mph 75 % 0.00 in 0.0 W/m2 RA
00:13 58.2 °F 50.7 °F 29.77 in South 0.8 mph 3.5 mph 76 % 0.00 in 0.0 W/m2 OVC
00:18 58.1 °F 50.6 °F 29.76 in Calm   3.5 mph 76 % 0.00 in 0.0 W/m2 OVC
00:23 58.1 °F 50.9 °F 29.76 in Calm   3.5 mph 77 % 0.00 in 0.0 W/m2 OVC
00:28 58.0 °F 50.8 °F 29.76 in NE 0.7 mph 1.2 mph 77 % 0.00 in 0.0 W/m2 OVC
00:33 57.9 °F 50.7 °F 29.76 in Calm   3.5 mph 77 % 0.00 in 0.0 W/m2 OVC
00:38 57.8 °F 50.6 °F 29.76 in Calm   5.8 mph 77 % 0.00 in 0.0 W/m2 OVC
00:44 57.7 °F 50.5 °F 29.75 in NNE 1.3 mph 11.5 mph 77 % 0.00 in 0.0 W/m2 OVC
00:49 57.6 °F 50.4 °F 29.75 in ENE 0.1 mph 11.5 mph 77 % 0.00 in 0.0 W/m2 OVC
00:54 57.5 °F 50.7 °F 29.75 in Calm   8.1 mph 78 % 0.00 in 0.0 W/m2 OVC
00:59 57.4 °F 50.6 °F 29.74 in NNE 0.3 mph 3.5 mph 78 % 0.00 in 0.0 W/m2 OVC
01:09 57.3 °F 50.5 °F 29.74 in NE 0.2 mph 3.5 mph 78 % 0.00 in 0.0 W/m2 OVC
01:14 57.3 °F 50.8 °F 29.74 in SE 0.3 mph 5.8 mph 79 % 0.00 in 0.0 W/m2 OVC
01:19 57.2 °F 50.7 °F 29.74 in NE 0.1 mph 5.8 mph 79 % 0.00 in 0.0 W/m2 OVC
01:24 57.2 °F 50.7 °F 29.74 in ESE 0.2 mph 3.5 mph 79 % 0.00 in 0.0 W/m2 OVC
01:29 57.1 °F 51.0 °F 29.74 in Calm   6.9 mph 80 % 0.00 in 0.0 W/m2 OVC
01:34 57.1 °F 51.0 °F 29.74 in East 0.5 mph 6.9 mph 80 % 0.00 in 0.0 W/m2 OVC
01:44 57.1 °F 51.0 °F 29.74 in Calm   3.5 mph 80 % 0.00 in 0.0 W/m2 OVC
01:49 57.0 °F 50.9 °F 29.74 in ESE 0.5 mph 3.5 mph 80 % 0.00 in 0.0 W/m2 OVC
01:54 57.0 °F 50.9 °F 29.73 in Calm   4.6 mph 80 % 0.00 in 0.0 W/m2 OVC
01:59 57.0 °F 51.2 °F 29.73 in ESE 0.7 mph 5.8 mph 81 % 0.00 in 0.0 W/m2 OVC
02:04 57.0 °F 51.2 °F 29.73 in Calm   5.8 mph 81 % 0.00 in 0.0 W/m2 OVC
02:09 57.0 °F 51.2 °F 29.73 in NE 0.9 mph 8.1 mph 81 % 0.00 in 0.0 W/m2 OVC
02:14 57.0 °F 51.2 °F 29.73 in East 0.3 mph 8.1 mph 81 % 0.00 in 0.0 W/m2 OVC
02:19 57.1 °F 51.3 °F 29.72 in ESE 0.3 mph 3.5 mph 81 % 0.00 in 0.0 W/m2 OVC
02:24 57.1 °F 51.3 °F 29.72 in NE 3.0 mph 6.9 mph 81 % 0.00 in 0.0 W/m2 OVC
02:29 57.1 °F 51.3 °F 29.72 in NE 0.4 mph 6.9 mph 81 % 0.00 in 0.0 W/m2 OVC
02:34 57.1 °F 51.7 °F 29.71 in North 1.0 mph 6.9 mph 82 % 0.00 in 0.0 W/m2 OVC
02:39 57.1 °F 51.7 °F 29.71 in East 0.6 mph 6.9 mph 82 % 0.00 in 0.0 W/m2 OVC
02:44 57.1 °F 51.7 °F 29.71 in ENE 0.2 mph 6.9 mph 82 % 0.00 in 0.0 W/m2 OVC
02:49 57.2 °F 52.1 °F 29.71 in East 0.4 mph 6.9 mph 83 % 0.00 in 0.0 W/m2 OVC
02:54 57.1 °F 52.0 °F 29.71 in ESE 0.8 mph 9.2 mph 83 % 0.00 in 0.0 W/m2 OVC
02:59 57.0 °F 51.9 °F 29.71 in ESE 0.1 mph 9.2 mph 83 % 0.00 in 0.0 W/m2 OVC
03:04 56.8 °F 52.0 °F 29.71 in ESE 1.1 mph 3.5 mph 84 % 0.00 in 0.0 W/m2 OVC
03:09 56.7 °F 52.2 °F 29.71 in Calm   5.8 mph 85 % 0.00 in 0.0 W/m2 OVC
03:14 56.6 °F 52.1 °F 29.70 in ESE 0.8 mph 5.8 mph 85 % 0.00 in 0.0 W/m2 OVC
03:19 56.5 °F 52.4 °F 29.70 in Calm   3.5 mph 86 % 0.00 in 0.0 W/m2 OVC
03:24 56.5 °F 52.4 °F 29.71 in Calm   3.5 mph 86 % 0.00 in 0.0 W/m2 OVC
03:29 56.4 °F 52.6 °F 29.71 in East 0.1 mph 3.5 mph 87 % 0.00 in 0.0 W/m2 OVC
03:34 56.2 °F 52.4 °F 29.71 in Calm   3.5 mph 87 % 0.00 in 0.0 W/m2 OVC
03:39 56.1 °F 52.6 °F 29.70 in Calm   3.5 mph 88 % 0.01 in 0.0 W/m2 RA
03:44 56.0 °F 52.5 °F 29.70 in Calm   4.6 mph 88 % 0.03 in 0.0 W/m2 RA
03:50 55.8 °F 52.6 °F 29.70 in Calm   4.6 mph 89 % 0.05 in 0.0 W/m2 RA
03:55 55.6 °F 52.4 °F 29.69 in NNE 0.4 mph 3.5 mph 89 % 0.07 in 0.0 W/m2 RA
04:00 55.5 °F 52.3 °F 29.68 in East 0.4 mph 5.8 mph 89 % 0.07 in 0.0 W/m2 RA
04:05 55.6 °F 52.7 °F 29.68 in Calm   2.0 mph 90 % 0.00 in 0.0 W/m2 OVC
04:10 55.4 °F 52.5 °F 29.68 in Calm   5.0 mph 90 % 0.00 in 0.0 W/m2 OVC
04:15 55.4 °F 52.8 °F 29.67 in East 1.2 mph 4.6 mph 91 % 0.07 in 0.0 W/m2 OVC
04:20 55.4 °F 52.8 °F 29.67 in Calm   3.5 mph 91 % 0.08 in 0.0 W/m2 RA
04:25 55.4 °F 52.8 °F 29.67 in Calm   3.5 mph 91 % 0.08 in 0.0 W/m2 RA
04:30 55.3 °F 52.7 °F 29.67 in Calm   3.5 mph 91 % 0.08 in 0.0 W/m2 OVC
04:35 55.2 °F 52.6 °F 29.67 in NE 1.6 mph 3.5 mph 91 % 0.09 in 0.0 W/m2 RA
04:40 55.2 °F 52.6 °F 29.67 in NNE 0.2 mph 10.4 mph 91 % 0.07 in 0.0 W/m2 RA
04:45 55.2 °F 52.6 °F 29.67 in NNE 0.1 mph 10.4 mph 91 % 0.06 in 0.0 W/m2 OVC
04:50 55.2 °F 52.9 °F 29.67 in Calm   2.3 mph 92 % 0.04 in 0.0 W/m2 RA
04:55 55.1 °F 52.8 °F 29.67 in ESE 0.2 mph 3.5 mph 92 % 0.04 in 0.0 W/m2 RA
05:00 55.0 °F 52.7 °F 29.66 in ENE 1.4 mph 4.6 mph 92 % 0.04 in 0.0 W/m2 RA
05:05 55.0 °F 52.7 °F 29.66 in East 0.7 mph 4.6 mph 92 % 0.04 in 0.0 W/m2 -RA
05:10 54.9 °F 52.6 °F 29.66 in NE 0.2 mph 4.6 mph 92 % 0.05 in 0.0 W/m2 -RA
05:15 54.8 °F 52.5 °F 29.66 in NE 0.2 mph 3.5 mph 92 % 0.05 in 0.0 W/m2 -RA
05:20 54.8 °F 52.5 °F 29.66 in ENE 0.3 mph 3.5 mph 92 % 0.04 in 0.0 W/m2 -RA
05:25 54.9 °F 52.6 °F 29.65 in SE 0.2 mph 3.5 mph 92 % 0.04 in 0.0 W/m2 -RA
05:30 54.8 °F 52.5 °F 29.65 in ESE 0.8 mph 3.5 mph 92 % 0.04 in 0.0 W/m2 -RA
05:35 54.7 °F 52.4 °F 29.65 in NNE 0.9 mph 4.6 mph 92 % 0.04 in 0.0 W/m2 -RA
05:40 54.7 °F 52.4 °F 29.64 in Calm   4.6 mph 92 % 0.04 in 0.0 W/m2 -RA
05:45 54.7 °F 52.4 °F 29.64 in SE 0.7 mph 4.6 mph 92 % 0.04 in 0.0 W/m2 -RA
05:50 54.7 °F 52.4 °F 29.64 in NE 0.1 mph 3.5 mph 92 % 0.03 in 0.0 W/m2 -RA
05:55 54.7 °F 52.4 °F 29.63 in NE 0.8 mph 3.5 mph 92 % 0.02 in 0.0 W/m2 -RA
06:00 54.7 °F 52.7 °F 29.63 in East 1.0 mph 5.8 mph 93 % 0.02 in 0.0 W/m2 -RA
06:05 54.6 °F 52.6 °F 29.63 in NE 0.3 mph 9.2 mph 93 % 0.02 in 0.0 W/m2 -RA
06:10 54.6 °F 52.6 °F 29.62 in ENE 1.5 mph 9.2 mph 93 % 0.01 in 0.0 W/m2 -RA
06:15 54.6 °F 52.6 °F 29.62 in ESE 1.9 mph 8.1 mph 93 % 0.01 in 0.0 W/m2 -RA
06:20 54.5 °F 52.2 °F 29.62 in ENE 1.2 mph 8.1 mph 92 % 0.01 in 5.0 W/m2 -RA
06:25 54.6 °F 52.6 °F 29.62 in NNE 1.9 mph 8.1 mph 93 % 0.01 in 5.0 W/m2 -RA
06:30 54.6 °F 52.6 °F 29.62 in Calm   13.8 mph 93 % 0.01 in 7.0 W/m2 -RA
06:35 54.6 °F 52.6 °F 29.63 in NNE 0.1 mph 13.8 mph 93 % 0.00 in 7.0 W/m2 -RA
06:40 54.6 °F 52.6 °F 29.62 in East 0.3 mph 3.5 mph 93 % 0.01 in 14.0 W/m2 -RA
06:45 54.7 °F 52.7 °F 29.62 in Calm   6.9 mph 93 % 0.01 in 18.0 W/m2 -RA
06:50 54.7 °F 52.7 °F 29.62 in NE 0.3 mph 6.9 mph 93 % 0.01 in 16.0 W/m2 -RA
06:55 54.7 °F 52.7 °F 29.62 in West 0.2 mph 5.8 mph 93 % 0.02 in 30.0 W/m2 -RA
07:00 54.7 °F 52.7 °F 29.62 in Calm   5.8 mph 93 % 0.02 in 28.0 W/m2 -RA
07:05 54.9 °F 52.9 °F 29.62 in Calm   3.5 mph 93 % 0.02 in 19.0 W/m2 -RA
07:10 54.8 °F 52.8 °F 29.62 in Calm   1.2 mph 93 % 0.02 in 16.0 W/m2 -RA
07:15 54.8 °F 52.8 °F 29.61 in NE 3.1 mph 11.5 mph 93 % 0.02 in 21.0 W/m2 -RA
07:20 54.8 °F 52.8 °F 29.61 in ENE 0.5 mph 11.5 mph 93 % 0.02 in 18.0 W/m2 -RA
07:25 54.9 °F 52.9 °F 29.61 in NE 1.2 mph 11.5 mph 93 % 0.03 in 19.0 W/m2 -RA
07:30 54.8 °F 52.8 °F 29.61 in Calm   10.4 mph 93 % 0.03 in 21.0 W/m2 -RA
07:35 54.9 °F 52.9 °F 29.60 in ENE 0.8 mph 10.4 mph 93 % 0.04 in 19.0 W/m2 -RA
07:40 54.9 °F 52.9 °F 29.60 in Calm   8.1 mph 93 % 0.04 in 28.0 W/m2 -RA
07:45 54.9 °F 52.9 °F 29.60 in Calm   4.6 mph 93 % 0.04 in 28.0 W/m2 -RA
07:50 55.0 °F 53.0 °F 29.60 in SE 0.4 mph 6.9 mph 93 % 0.04 in 28.0 W/m2 -RA
07:55 54.9 °F 52.9 °F 29.59 in NE 1.2 mph 6.9 mph 93 % 0.03 in 32.0 W/m2 -RA
08:00 54.9 °F 52.9 °F 29.59 in SE 0.5 mph 5.8 mph 93 % 0.04 in 30.0 W/m2 -RA
08:05 54.9 °F 52.9 °F 29.58 in North 0.4 mph 4.6 mph 93 % 0.04 in 30.0 W/m2 -RA
08:10 55.0 °F 53.0 °F 29.58 in Calm   3.5 mph 93 % 0.04 in 33.0 W/m2 -RA
08:15 55.1 °F 53.1 °F 29.58 in NNE 0.2 mph 8.1 mph 93 % 0.04 in 35.0 W/m2 -RA
08:21 55.1 °F 53.1 °F 29.58 in SE 0.8 mph 8.1 mph 93 % 0.04 in 39.0 W/m2 -RA
08:26 55.1 °F 53.1 °F 29.58 in ENE 0.3 mph 5.8 mph 93 % 0.04 in 28.0 W/m2 -RA
08:31 55.1 °F 53.1 °F 29.59 in ENE 1.0 mph 5.8 mph 93 % 0.05 in 30.0 W/m2 -RA
08:36 55.1 °F 53.1 °F 29.58 in ESE 0.7 mph 9.2 mph 93 % 0.05 in 37.0 W/m2 -RA
08:41 55.1 °F 53.1 °F 29.59 in ESE 0.7 mph 9.2 mph 93 % 0.06 in 33.0 W/m2 -RA
08:46 55.1 °F 53.1 °F 29.59 in ESE 0.4 mph 5.8 mph 93 % 0.07 in 46.0 W/m2 -RA
08:51 55.1 °F 53.1 °F 29.58 in Calm   4.6 mph 93 % 0.09 in 53.0 W/m2 -RA
08:56 55.2 °F 53.5 °F 29.58 in ESE 0.1 mph 3.5 mph 94 % 0.09 in 42.0 W/m2 -RA
09:01 55.2 °F 53.5 °F 29.58 in Calm   3.5 mph 94 % 0.12 in 51.0 W/m2 RA
09:06 55.2 °F 53.5 °F 29.58 in Calm   3.5 mph 94 % 0.16 in 37.0 W/m2 RA
09:11 55.3 °F 53.6 °F 29.58 in Calm   3.5 mph 94 % 0.18 in 33.0 W/m2 RA
09:16 55.2 °F 53.5 °F 29.58 in Calm   3.5 mph 94 % 0.19 in 32.0 W/m2 RA
09:21 55.2 °F 53.5 °F 29.58 in ENE 0.1 mph 3.5 mph 94 % 0.20 in 25.0 W/m2 RA
09:26 55.1 °F 53.4 °F 29.58 in NE 0.1 mph 3.5 mph 94 % 0.20 in 19.0 W/m2 RA
09:31 55.1 °F 53.4 °F 29.58 in Calm   3.5 mph 94 % 0.19 in 19.0 W/m2 RA
09:36 55.1 °F 53.4 °F 29.58 in Calm   2.3 mph 94 % 0.19 in 19.0 W/m2 RA
09:41 55.1 °F 53.4 °F 29.59 in SSW 0.4 mph 2.3 mph 94 % 0.17 in 14.0 W/m2 RA
09:46 55.0 °F 53.3 °F 29.58 in East 0.9 mph 3.5 mph 94 % 0.17 in 19.0 W/m2 RA
09:51 55.1 °F 53.4 °F 29.58 in Calm   3.5 mph 94 % 0.16 in 25.0 W/m2 RA
09:56 55.1 °F 53.4 °F 29.58 in Calm   3.5 mph 94 % 0.16 in 46.0 W/m2 RA
10:01 55.0 °F 53.3 °F 29.57 in Calm   2.3 mph 94 % 0.16 in 69.0 W/m2 RA
10:06 55.2 °F 53.5 °F 29.57 in Calm   4.6 mph 94 % 0.13 in 93.0 W/m2 RA
10:11 55.3 °F 53.6 °F 29.57 in East 0.4 mph 4.6 mph 94 % 0.12 in 77.0 W/m2 RA
10:16 55.4 °F 53.7 °F 29.57 in NNE 0.2 mph 4.6 mph 94 % 0.10 in 107.0 W/m2 RA
10:22 55.6 °F 53.9 °F 29.57 in Calm   2.3 mph 94 % 0.09 in 121.0 W/m2 OVC
10:27 55.5 °F 53.8 °F 29.57 in Calm   5.8 mph 94 % 0.09 in 91.0 W/m2 RA
10:32 55.5 °F 53.8 °F 29.56 in ESE 0.4 mph 5.8 mph 94 % 0.09 in 169.0 W/m2 OVC
10:37 55.5 °F 53.8 °F 29.56 in ESE 0.1 mph 3.5 mph 94 % 0.09 in 139.0 W/m2 RA
10:42 55.6 °F 53.9 °F 29.56 in NNW 1.3 mph 10.4 mph 94 % 0.10 in 102.0 W/m2 RA
10:47 55.4 °F 53.7 °F 29.56 in Calm   10.4 mph 94 % 0.10 in 72.0 W/m2 -RA
10:52 55.4 °F 53.7 °F 29.56 in ESE 1.1 mph 6.9 mph 94 % 0.09 in 114.0 W/m2 -RA
10:57 55.5 °F 53.8 °F 29.56 in ESE 0.3 mph 4.6 mph 94 % 0.08 in 144.0 W/m2 -RA
11:02 55.6 °F 53.9 °F 29.56 in East 0.6 mph 4.6 mph 94 % 0.06 in 169.0 W/m2 +RA
11:07 55.6 °F 53.9 °F 29.56 in ESE 0.5 mph 3.5 mph 94 % 0.05 in 109.0 W/m2 +RA
11:12 55.8 °F 54.1 °F 29.56 in East 0.8 mph 3.5 mph 94 % 0.04 in 178.0 W/m2 +RA
11:17 55.8 °F 54.1 °F 29.56 in East 0.1 mph 4.6 mph 94 % 0.04 in 155.0 W/m2 +RA
11:22 55.9 °F 54.2 °F 29.56 in Calm   4.6 mph 94 % 0.03 in 211.0 W/m2 +RA
11:27 56.2 °F 54.5 °F 29.56 in Calm   3.5 mph 94 % 0.03 in 221.0 W/m2 +RA
11:32 56.4 °F 54.7 °F 29.55 in ESE 0.1 mph 2.3 mph 94 % 0.04 in 236.0 W/m2 +RA
11:37 56.7 °F 55.0 °F 29.55 in Calm   4.6 mph 94 % 0.03 in 345.0 W/m2 +RA
11:42 57.0 °F 55.6 °F 29.56 in Calm   4.6 mph 95 % 0.02 in 211.0 W/m2 +RA
11:47 56.6 °F 54.9 °F 29.56 in East 1.6 mph 5.8 mph 94 % 0.01 in 258.0 W/m2 +RA
11:52 56.6 °F 54.9 °F 29.55 in Calm   6.9 mph 94 % 0.01 in 230.0 W/m2 +RA
11:57 56.7 °F 55.0 °F 29.55 in Calm   6.9 mph 94 % 0.01 in 223.0 W/m2 +RA
12:02 57.1 °F 55.7 °F 29.55 in ENE 0.5 mph 3.5 mph 95 % 0.01 in 200.0 W/m2 -RA
12:07 57.0 °F 55.3 °F 29.56 in Calm   4.6 mph 94 % 0.01 in 190.0 W/m2 -RA
12:12 57.1 °F 55.4 °F 29.55 in Calm   4.6 mph 94 % 0.01 in 246.0 W/m2 -RA
12:17 57.0 °F 55.3 °F 29.55 in Calm   3.5 mph 94 % 0.01 in 216.0 W/m2 -RA
12:22 57.1 °F 55.4 °F 29.55 in Calm   3.5 mph 94 % 0.01 in 230.0 W/m2 -RA
12:27 57.2 °F 55.5 °F 29.55 in East 0.4 mph 3.5 mph 94 % 0.01 in 227.0 W/m2 -RA
12:32 57.3 °F 55.6 °F 29.55 in East 0.1 mph 3.5 mph 94 % 0.00 in 258.0 W/m2 -RA
12:37 57.3 °F 55.6 °F 29.55 in East 0.4 mph 3.5 mph 94 % 0.00 in 221.0 W/m2 -RA
12:43 57.5 °F 55.8 °F 29.55 in East 0.1 mph 3.5 mph 94 % 0.00 in 264.0 W/m2 -RA
12:48 57.8 °F 56.1 °F 29.55 in Calm   3.5 mph 94 % 0.00 in 216.0 W/m2 -RA
12:53 57.8 °F 56.1 °F 29.55 in ENE 1.2 mph 8.1 mph 94 % 0.00 in 165.0 W/m2 -RA
12:58 57.7 °F 56.0 °F 29.55 in Calm   8.1 mph 94 % 0.00 in 153.0 W/m2 -RA
13:03 57.7 °F 56.0 °F 29.56 in ENE 0.1 mph 8.1 mph 94 % 0.00 in 163.0 W/m2 -RA
13:08 57.8 °F 56.1 °F 29.56 in East 0.1 mph 3.5 mph 94 % 0.00 in 178.0 W/m2 -RA
13:13 57.9 °F 56.2 °F 29.56 in Calm   3.5 mph 94 % 0.00 in 211.0 W/m2 -RA
13:18 58.1 °F 56.4 °F 29.56 in ESE 0.4 mph 3.5 mph 94 % 0.00 in 211.0 W/m2 -RA
13:23 58.4 °F 56.7 °F 29.55 in Calm   3.5 mph 94 % 0.00 in 223.0 W/m2 -RA
13:28 58.7 °F 57.0 °F 29.55 in Calm   2.3 mph 94 % 0.00 in 246.0 W/m2 -RA
13:33 58.9 °F 57.2 °F 29.55 in Calm   2.3 mph 94 % 0.00 in 255.0 W/m2 -RA
13:38 58.8 °F 57.1 °F 29.55 in ENE 0.3 mph 2.3 mph 94 % 0.00 in 255.0 W/m2 -RA
13:43 58.6 °F 56.6 °F 29.55 in ESE 0.5 mph 3.5 mph 93 % 0.00 in 178.0 W/m2 -RA
13:48 58.7 °F 57.0 °F 29.54 in Calm   3.5 mph 94 % 0.00 in 190.0 W/m2 -RA
13:53 58.8 °F 57.1 °F 29.54 in Calm   3.5 mph 94 % 0.00 in 225.0 W/m2 -RA
13:58 58.8 °F 57.1 °F 29.55 in Calm   3.5 mph 94 % 0.00 in 209.0 W/m2 -RA
14:03 58.9 °F 56.9 °F 29.54 in Calm   4.6 mph 93 % 0.00 in 225.0 W/m2 OVC
14:08 59.2 °F 57.2 °F 29.54 in SE 0.1 mph 4.6 mph 93 % 0.00 in 225.0 W/m2 OVC
14:13 59.1 °F 57.1 °F 29.54 in Calm   5.8 mph 93 % 0.00 in 225.0 W/m2 OVC
14:18 59.4 °F 57.4 °F 29.54 in North 0.1 mph 5.8 mph 93 % 0.00 in 265.0 W/m2 OVC
14:23 59.6 °F 57.6 °F 29.53 in ENE 0.1 mph 4.6 mph 93 % 0.00 in 278.0 W/m2 OVC
14:28 59.8 °F 57.8 °F 29.53 in Calm   5.8 mph 93 % 0.00 in 202.0 W/m2 OVC
14:33 60.2 °F 58.2 °F 29.53 in NE 0.2 mph 5.8 mph 93 % 0.00 in 213.0 W/m2 OVC
14:38 60.0 °F 58.0 °F 29.52 in Calm   2.3 mph 93 % 0.00 in 151.0 W/m2 OVC
14:43 60.0 °F 57.7 °F 29.52 in Calm   3.5 mph 92 % 0.00 in 141.0 W/m2 OVC
14:48 60.0 °F 58.0 °F 29.52 in Calm   3.5 mph 93 % 0.00 in 156.0 W/m2 OVC
14:53 59.9 °F 57.9 °F 29.52 in Calm   1.2 mph 93 % 0.00 in 167.0 W/m2 OVC
14:58 60.0 °F 57.7 °F 29.52 in ESE 0.8 mph 3.5 mph 92 % 0.00 in 253.0 W/m2 OVC
15:03 60.1 °F 58.1 °F 29.51 in East 0.3 mph 3.5 mph 93 % 0.00 in 345.0 W/m2 OVC
15:08 60.5 °F 58.2 °F 29.51 in East 0.2 mph 3.5 mph 92 % 0.00 in 425.0 W/m2 OVC
15:13 60.7 °F 58.1 °F 29.51 in Calm   3.5 mph 91 % 0.00 in 234.0 W/m2 OVC
15:18 60.7 °F 58.1 °F 29.51 in NNE 0.1 mph 3.5 mph 91 % 0.00 in 155.0 W/m2 OVC
15:23 60.6 °F 58.0 °F 29.51 in Calm   3.5 mph 91 % 0.00 in 125.0 W/m2 OVC
15:28 60.7 °F 58.1 °F 29.52 in Calm   1.2 mph 91 % 0.00 in 149.0 W/m2 OVC
15:33 60.7 °F 58.1 °F 29.51 in Calm   1.2 mph 91 % 0.00 in 197.0 W/m2 OVC
15:38 60.7 °F 58.1 °F 29.51 in Calm   1.2 mph 91 % 0.00 in 165.0 W/m2 OVC
15:48 61.0 °F 58.4 °F 29.51 in Calm   3.5 mph 91 % 0.00 in 134.0 W/m2 OVC
15:53 61.2 °F 58.6 °F 29.51 in North 0.1 mph 3.5 mph 91 % 0.00 in 178.0 W/m2 OVC
15:58 61.2 °F 58.6 °F 29.51 in Calm   2.3 mph 91 % 0.00 in 163.0 W/m2 OVC
15:59 61.2 °F 58.6 °F 29.51 in Calm   2.3 mph 91 % 0.00 in 163.0 W/m2 OVC
16:04 61.3 °F 58.3 °F 29.51 in Calm   3.5 mph 90 % 0.00 in 93.0 W/m2 OVC
16:07 61.2 °F 58.2 °F 29.51 in Calm   3.5 mph 90 % 0.00 in 74.0 W/m2 OVC
16:12 61.1 °F 58.1 °F 29.51 in Calm   3.5 mph 90 % 0.00 in 79.0 W/m2 OVC
16:17 61.1 °F 58.1 °F 29.51 in NE 0.1 mph 3.5 mph 90 % 0.00 in 95.0 W/m2 OVC
16:22 61.2 °F 58.2 °F 29.50 in Calm   2.3 mph 90 % 0.00 in 149.0 W/m2 OVC
16:27 61.4 °F 58.4 °F 29.50 in Calm   1.2 mph 90 % 0.00 in 144.0 W/m2 OVC
16:32 61.6 °F 58.6 °F 29.50 in Calm   2.3 mph 90 % 0.00 in 128.0 W/m2 OVC
16:37 61.7 °F 58.7 °F 29.50 in NNE 0.1 mph 2.3 mph 90 % 0.00 in 107.0 W/m2 OVC
16:42 61.5 °F 58.5 °F 29.49 in North 0.2 mph 3.5 mph 90 % 0.00 in 84.0 W/m2 OVC
16:47 61.4 °F 58.4 °F 29.49 in Calm   3.5 mph 90 % 0.00 in 77.0 W/m2 OVC
16:52 61.4 °F 58.4 °F 29.50 in Calm   3.5 mph 90 % 0.00 in 67.0 W/m2 OVC
16:57 61.3 °F 58.0 °F 29.50 in Calm   1.2 mph 89 % 0.00 in 62.0 W/m2 OVC
17:02 61.2 °F 58.2 °F 29.49 in Calm   1.2 mph 90 % 0.00 in 42.0 W/m2 OVC
17:07 61.3 °F 58.3 °F 29.50 in Calm   1.2 mph 90 % 0.00 in 40.0 W/m2 OVC
17:12 61.3 °F 58.3 °F 29.50 in Calm     90 % 0.00 in 40.0 W/m2 OVC
17:17 61.4 °F 58.4 °F 29.51 in Calm     90 % 0.00 in 44.0 W/m2 OVC
17:22 61.4 °F 58.4 °F 29.52 in Calm     90 % 0.00 in 56.0 W/m2 OVC
17:27 61.5 °F 58.5 °F 29.52 in Calm   1.2 mph 90 % 0.00 in 69.0 W/m2 OVC
17:32 61.3 °F 58.3 °F 29.52 in Calm   1.2 mph 90 % 0.00 in 81.0 W/m2 OVC
17:37 61.4 °F 58.4 °F 29.51 in NNE 0.4 mph 1.2 mph 90 % 0.00 in 98.0 W/m2 OVC
17:47 61.4 °F 58.4 °F 29.51 in Calm   2.3 mph 90 % 0.00 in 72.0 W/m2 OVC
17:48 61.4 °F 58.4 °F 29.51 in Calm   2.3 mph 90 % 0.00 in 70.0 W/m2 OVC
17:53 61.5 °F 58.5 °F 29.51 in NNE 0.6 mph 3.5 mph 90 % 0.00 in 60.0 W/m2 OVC
17:58 61.4 °F 58.4 °F 29.51 in Calm   3.5 mph 90 % 0.00 in 84.0 W/m2 OVC
18:03 61.4 °F 58.4 °F 29.51 in Calm   3.5 mph 90 % 0.00 in 49.0 W/m2 -RA
18:08 61.4 °F 58.4 °F 29.50 in NNE 2.1 mph 3.5 mph 90 % 0.00 in 37.0 W/m2 -RA
18:13 61.2 °F 58.2 °F 29.51 in NNE 0.8 mph 4.6 mph 90 % 0.00 in 37.0 W/m2 -RA
18:18 61.1 °F 58.1 °F 29.51 in NNE 0.3 mph 4.6 mph 90 % 0.00 in 33.0 W/m2 -RA
18:23 61.0 °F 58.4 °F 29.50 in Calm   4.6 mph 91 % 0.00 in 40.0 W/m2 -RA
18:28 60.9 °F 58.3 °F 29.49 in North 0.2 mph 3.5 mph 91 % 0.00 in 37.0 W/m2 -RA
18:33 60.9 °F 58.3 °F 29.49 in NNE 0.4 mph 3.5 mph 91 % 0.00 in 60.0 W/m2 -RA
18:38 60.8 °F 58.2 °F 29.49 in North 0.2 mph 3.5 mph 91 % 0.00 in 90.0 W/m2 -RA
18:43 60.8 °F 58.2 °F 29.49 in Calm   3.5 mph 91 % 0.00 in 47.0 W/m2 -RA
18:48 60.7 °F 58.1 °F 29.48 in NNE 1.1 mph 3.5 mph 91 % 0.00 in 47.0 W/m2 -RA
18:53 60.7 °F 58.1 °F 29.48 in Calm   3.5 mph 91 % 0.00 in 42.0 W/m2 -RA
18:58 60.7 °F 58.1 °F 29.49 in NNE 0.4 mph 3.5 mph 91 % 0.00 in 23.0 W/m2 -RA
19:03 60.7 °F 58.1 °F 29.49 in North 0.9 mph 3.5 mph 91 % 0.00 in 25.0 W/m2 OVC
19:08 60.6 °F 58.0 °F 29.49 in Calm   3.5 mph 91 % 0.00 in 46.0 W/m2 OVC
19:13 60.6 °F 58.0 °F 29.49 in NNE 0.1 mph 4.6 mph 91 % 0.00 in 63.0 W/m2 OVC
19:18 60.5 °F 57.9 °F 29.49 in Calm   4.6 mph 91 % 0.00 in 37.0 W/m2 OVC
19:23 60.5 °F 58.2 °F 29.49 in SE 0.2 mph 3.5 mph 92 % 0.00 in 19.0 W/m2 -RA
19:28 60.4 °F 57.8 °F 29.50 in Calm   3.5 mph 91 % 0.00 in 14.0 W/m2 -RA
19:33 60.5 °F 58.2 °F 29.50 in Calm   3.5 mph 92 % 0.00 in 9.0 W/m2 -RA
19:38 60.5 °F 58.2 °F 29.49 in Calm     92 % 0.00 in 12.0 W/m2 -RA
19:43 60.4 °F 58.1 °F 29.49 in Calm   3.5 mph 92 % 0.00 in 11.0 W/m2 -RA
19:48 60.5 °F 58.2 °F 29.50 in Calm   3.5 mph 92 % 0.00 in 5.0 W/m2 -RA
19:54 60.5 °F 58.2 °F 29.50 in Calm   2.3 mph 92 % 0.00 in 5.0 W/m2 -RA
19:59 60.5 °F 58.2 °F 29.48 in NNE 1.1 mph 3.5 mph 92 % 0.00 in 5.0 W/m2 -RA
20:04 60.4 °F 58.1 °F 29.48 in Calm   4.6 mph 92 % 0.00 in 5.0 W/m2 -RA
20:09 60.4 °F 58.1 °F 29.49 in Calm   4.6 mph 92 % 0.00 in 0.0 W/m2 -RA
20:14 60.3 °F 58.0 °F 29.49 in Calm   1.2 mph 92 % 0.00 in 0.0 W/m2 -RA
20:24 60.1 °F 57.8 °F 29.49 in Calm   3.5 mph 92 % 0.00 in 0.0 W/m2 -RA
20:29 60.2 °F 57.9 °F 29.50 in Calm     92 % 0.00 in 0.0 W/m2 -RA
20:34 60.1 °F 57.8 °F 29.49 in Calm     92 % 0.00 in 0.0 W/m2 -RA
20:39 60.0 °F 57.7 °F 29.49 in Calm   1.2 mph 92 % 0.00 in 0.0 W/m2 -RA
20:44 59.9 °F 57.6 °F 29.49 in Calm   2.3 mph 92 % 0.00 in 0.0 W/m2 -RA
20:45 59.9 °F 57.6 °F 29.49 in Calm   2.3 mph 92 % 0.00 in 0.0 W/m2 -RA
20:50 59.8 °F 57.5 °F 29.49 in Calm   2.3 mph 92 % 0.00 in 0.0 W/m2 -RA
20:55 59.8 °F 57.5 °F 29.48 in Calm   3.5 mph 92 % 0.00 in 0.0 W/m2 -RA
21:00 59.7 °F 57.4 °F 29.48 in NNE 1.2 mph 3.5 mph 92 % 0.00 in 0.0 W/m2 -RA
21:05 59.6 °F 57.3 °F 29.48 in Calm   3.5 mph 92 % 0.00 in 0.0 W/m2 OVC
21:10 59.6 °F 57.3 °F 29.48 in Calm   3.5 mph 92 % 0.00 in 0.0 W/m2 OVC
21:15 59.6 °F 57.3 °F 29.49 in Calm   2.3 mph 92 % 0.00 in 0.0 W/m2 OVC
21:20 59.6 °F 57.3 °F 29.49 in NNE 0.3 mph 2.3 mph 92 % 0.00 in 0.0 W/m2 OVC
21:25 59.5 °F 57.2 °F 29.50 in NNE 0.5 mph 6.9 mph 92 % 0.00 in 0.0 W/m2 OVC
21:30 59.4 °F 57.1 °F 29.50 in Calm   6.9 mph 92 % 0.00 in 0.0 W/m2 OVC
21:35 59.4 °F 57.1 °F 29.50 in NNE 0.4 mph 3.5 mph 92 % 0.00 in 0.0 W/m2 OVC
21:40 59.5 °F 57.2 °F 29.49 in North 0.2 mph 3.5 mph 92 % 0.00 in 0.0 W/m2 OVC
21:45 59.4 °F 57.1 °F 29.49 in Calm   3.5 mph 92 % 0.00 in 0.0 W/m2 OVC
21:50 59.4 °F 57.1 °F 29.49 in Calm   2.3 mph 92 % 0.00 in 0.0 W/m2 OVC
21:55 59.4 °F 57.1 °F 29.49 in Calm     92 % 0.00 in 0.0 W/m2 OVC
22:00 59.4 °F 57.1 °F 29.49 in Calm     92 % 0.00 in 0.0 W/m2 OVC
22:05 59.5 °F 57.2 °F 29.50 in Calm     92 % 0.00 in 0.0 W/m2 OVC
22:10 59.6 °F 57.3 °F 29.50 in Calm     92 % 0.00 in 0.0 W/m2 OVC
22:15 59.6 °F 57.3 °F 29.50 in Calm     92 % 0.00 in 0.0 W/m2 OVC
22:20 59.6 °F 57.3 °F 29.49 in Calm   1.2 mph 92 % 0.00 in 0.0 W/m2 OVC
22:25 59.5 °F 57.2 °F 29.49 in Calm   1.2 mph 92 % 0.00 in 0.0 W/m2 OVC
22:30 59.5 °F 57.2 °F 29.50 in Calm   1.2 mph 92 % 0.00 in 0.0 W/m2 OVC
22:35 59.5 °F 57.2 °F 29.50 in Calm     92 % 0.00 in 0.0 W/m2 OVC
22:40 59.5 °F 57.2 °F 29.50 in Calm     92 % 0.00 in 0.0 W/m2 OVC
22:45 59.4 °F 57.1 °F 29.50 in Calm     92 % 0.00 in 0.0 W/m2 OVC
22:50 59.4 °F 57.1 °F 29.51 in Calm     92 % 0.00 in 0.0 W/m2 OVC
22:55 59.5 °F 57.2 °F 29.51 in Calm     92 % 0.00 in 0.0 W/m2 OVC
23:00 59.5 °F 57.2 °F 29.51 in Calm     92 % 0.01 in 0.0 W/m2 RA
23:05 59.4 °F 57.1 °F 29.51 in Calm     92 % 0.03 in 0.0 W/m2 RA
23:10 59.4 °F 57.1 °F 29.50 in Calm     92 % 0.05 in 0.0 W/m2 RA
23:15 59.3 °F 57.3 °F 29.51 in Calm     93 % 0.06 in 0.0 W/m2 RA
23:20 59.2 °F 56.9 °F 29.51 in Calm     92 % 0.07 in 0.0 W/m2 RA
23:25 59.1 °F 57.1 °F 29.50 in Calm     93 % 0.07 in 0.0 W/m2 RA
23:30 58.8 °F 56.8 °F 29.49 in Calm   2.3 mph 93 % 0.08 in 0.0 W/m2 RA
23:36 58.2 °F 55.9 °F 29.49 in WSW 0.3 mph 3.5 mph 92 % 0.08 in 0.0 W/m2 RA
23:41 57.4 °F 55.1 °F 29.50 in WNW 0.7 mph 3.5 mph 92 % 0.08 in 0.0 W/m2 OVC
23:46 56.9 °F 54.9 °F 29.50 in Calm   3.5 mph 93 % 0.08 in 0.0 W/m2 OVC
23:51 56.8 °F 54.8 °F 29.49 in Calm   3.5 mph 93 % 0.09 in 0.0 W/m2 RA
23:56 57.0 °F 55.0 °F 29.49 in Calm     93 % 0.09 in 0.0 W/m2 RA
Air Products Campus Weather
Compliments of Weather Underground - 3.25 mb